Sect Salistral, Puerto Rico
Current Conditions -  °F | °C
As of 3:50 AM on Saturday 25 Oct 2014 (Local Time) from TJBQ Reporting Station
Clear Clear  
Wind Chill: 73°   Ceiling: Unl
Heat Index: 73°   Visibility: 10mi
Dew Point: 72°   Wind: 0mph
Humidity: 94%   Direction: NA
Pressure: 29.88"   Gusts: NA
Location:  18.0093°N, 66.6209°W
Report Text: TJBQ 250750Z 00000KT 10SM SKC 23/22 A2988 RMK RWY08 - ATIS L
Loading
Personal Weather Stations






























Interactive Weather Map
Tropical Storm Tracking
New forecast layout! Learn more

10-Day Weather Forecast

Advertisements
Track Severe Weather on mobile